Time;durP1;ratioP1;P1;durP2;ratioP2;P2;SDS_P1;SDS_P2;PMS_P1;PMS_P2;Temp;Humidity;BMP_temperature;BMP_pressure;BME280_temperature;BME280_humidity;BME280_pressure;Samples;Min_cycle;Max_cycle;Signal;HPM_P1;HPM_P2
2021/06/10 00:00:24;;;;;;;65.20;46.75;;;;;;;13.38;100.00;96451.22;1053060;28;20047;-51
2021/06/10 00:00:54;;;;;;;76.53;51.85;;;;;;;13.36;100.00;96452.28;1053091;28;20030;-54
2021/06/10 00:01:25;;;;;;;88.88;53.13;;;;;;;13.36;100.00;96449.66;1052684;28;20027;-51
2021/06/10 00:01:55;;;;;;;63.63;45.65;;;;;;;13.36;100.00;96444.38;1053043;28;20023;-52
2021/06/10 00:02:26;;;;;;;73.65;49.75;;;;;;;13.34;100.00;96455.03;1053075;28;20658;-51
2021/06/10 00:02:57;;;;;;;64.13;45.75;;;;;;;13.34;100.00;96452.38;1053084;28;20533;-52
2021/06/10 00:03:27;;;;;;;73.22;48.30;;;;;;;13.33;100.00;96452.53;1054076;28;20484;-52
2021/06/10 00:03:58;;;;;;;68.13;46.20;;;;;;;13.32;100.00;96456.94;1056995;28;20370;-51
2021/06/10 00:04:28;;;;;;;54.78;41.13;;;;;;;13.32;100.00;96456.94;1057460;28;20020;-51
2021/06/10 00:04:59;;;;;;;93.93;53.92;;;;;;;13.33;100.00;96463.06;1057285;28;20182;-50
2021/06/10 00:05:29;;;;;;;97.43;54.17;;;;;;;13.32;100.00;96450.84;1056953;28;20030;-53
2021/06/10 00:06:00;;;;;;;96.55;58.20;;;;;;;13.21;100.00;96446.31;1057285;28;20377;-50
2021/06/10 00:06:30;;;;;;;110.40;60.97;;;;;;;13.30;100.00;96453.56;1057322;28;20031;-51
2021/06/10 00:07:01;;;;;;;68.90;48.88;;;;;;;13.30;100.00;96461.47;1055445;28;20016;-53
2021/06/10 00:07:31;;;;;;;72.63;50.22;;;;;;;13.32;100.00;96464.00;1052843;28;20008;-52
2021/06/10 00:08:02;;;;;;;63.92;45.83;;;;;;;13.31;100.00;96459.69;1052957;28;20024;-53
2021/06/10 00:08:34;;;;;;;61.63;44.38;;;;;;;13.29;100.00;96461.53;1053073;28;20012;-55
2021/06/10 00:09:05;;;;;;;87.32;52.95;;;;;;;13.24;100.00;96461.88;1053114;28;20428;-51
2021/06/10 00:09:36;;;;;;;85.95;50.85;;;;;;;13.25;100.00;96462.72;1052773;28;20023;-52
2021/06/10 00:10:09;;;;;;;60.97;43.90;;;;;;;13.27;100.00;96461.69;1053000;28;20500;-51
2021/06/10 00:10:40;;;;;;;75.75;51.90;;;;;;;13.27;100.00;96464.31;1053129;28;20043;-50
2021/06/10 00:11:11;;;;;;;83.13;54.50;;;;;;;13.28;100.00;96463.34;1053068;28;20015;-52
2021/06/10 00:11:42;;;;;;;89.85;54.30;;;;;;;13.26;100.00;96459.16;1052778;28;20016;-53
2021/06/10 00:12:13;;;;;;;94.55;54.65;;;;;;;13.24;100.00;96461.88;1053076;28;20020;-51
2021/06/10 00:12:44;;;;;;;61.92;44.08;;;;;;;13.23;100.00;96463.69;1053023;28;20039;-51
2021/06/10 00:13:15;;;;;;;81.97;54.42;;;;;;;13.26;100.00;96467.88;1052956;28;20019;-51
2021/06/10 00:13:46;;;;;;;81.10;51.00;;;;;;;13.26;100.00;96465.25;1054541;28;20020;-52
2021/06/10 00:14:17;;;;;;;66.05;46.72;;;;;;;13.27;100.00;96463.44;1057319;28;20074;-50
2021/06/10 00:14:48;;;;;;;67.00;48.22;;;;;;;13.28;100.00;96473.88;1057228;28;20068;-52
2021/06/10 00:15:21;;;;;;;81.88;54.58;;;;;;;13.28;100.00;96468.59;1057117;28;20077;-51
2021/06/10 00:15:52;;;;;;;96.93;58.22;;;;;;;13.26;100.00;96467.03;1056985;28;20018;-51
2021/06/10 00:16:23;;;;;;;114.18;63.92;;;;;;;13.26;100.00;96472.31;1057261;28;20386;-50
2021/06/10 00:16:53;;;;;;;146.95;71.22;;;;;;;13.24;100.00;96467.16;1057412;28;20503;-53
2021/06/10 00:17:24;;;;;;;138.30;69.53;;;;;;;13.21;100.00;96462.97;1057201;28;20084;-52
2021/06/10 00:17:54;;;;;;;135.65;67.07;;;;;;;13.22;100.00;96469.06;1056975;28;20022;-51
2021/06/10 00:18:25;;;;;;;75.05;51.80;;;;;;;13.23;100.00;96466.31;1057103;28;20011;-52
2021/06/10 00:18:57;;;;;;;65.40;47.00;;;;;;;13.22;100.00;96464.63;1057318;28;20016;-52
2021/06/10 00:19:27;;;;;;;60.95;44.38;;;;;;;13.23;100.00;96468.94;1057251;28;20007;-52
2021/06/10 00:19:59;;;;;;;71.30;47.28;;;;;;;13.20;100.00;96466.53;1057008;28;20553;-52
2021/06/10 00:20:31;;;;;;;75.97;52.38;;;;;;;13.19;100.00;96470.13;1057167;27;20016;-54
2021/06/10 00:21:01;;;;;;;76.13;50.38;;;;;;;13.20;100.00;96469.16;1057311;28;20022;-54
2021/06/10 00:21:32;;;;;;;102.82;53.78;;;;;;;13.18;100.00;96471.06;1057197;28;20030;-52
2021/06/10 00:22:03;;;;;;;115.63;60.47;;;;;;;13.18;100.00;96467.59;1057057;28;20039;-52
2021/06/10 00:22:33;;;;;;;104.05;60.15;;;;;;;13.18;100.00;96468.44;1057070;28;20004;-54
2021/06/10 00:23:04;;;;;;;100.97;58.15;;;;;;;13.21;100.00;96464.72;1057268;28;20026;-52
2021/06/10 00:23:35;;;;;;;60.63;45.65;;;;;;;13.22;100.00;96463.78;1056682;28;20022;-51
2021/06/10 00:24:06;;;;;;;80.53;51.95;;;;;;;13.22;100.00;96466.44;1056737;28;20023;-52
2021/06/10 00:24:36;;;;;;;56.55;43.25;;;;;;;13.22;100.00;96466.44;1057110;28;20068;-52
2021/06/10 00:25:08;;;;;;;65.60;49.13;;;;;;;13.23;100.00;96468.09;1057141;28;20027;-51
2021/06/10 00:25:38;;;;;;;68.05;48.92;;;;;;;13.21;100.00;96473.50;1057119;28;20047;-51
2021/06/10 00:26:09;;;;;;;80.47;52.55;;;;;;;13.19;100.00;96466.63;1057207;28;20438;-53
2021/06/10 00:26:39;;;;;;;76.90;51.88;;;;;;;13.16;100.00;96467.72;1057014;28;20020;-53
2021/06/10 00:27:10;;;;;;;73.55;47.22;;;;;;;13.16;100.00;96466.88;1057204;28;20023;-50
2021/06/10 00:27:41;;;;;;;58.60;43.75;;;;;;;13.14;100.00;96469.63;1057132;28;20477;-52
2021/06/10 00:28:11;;;;;;;64.07;45.67;;;;;;;13.14;100.00;96467.00;1057150;28;20057;-52
2021/06/10 00:28:42;;;;;;;55.28;43.00;;;;;;;13.13;100.00;96470.56;1056563;28;20023;-50
2021/06/10 00:29:12;;;;;;;81.88;52.25;;;;;;;13.14;100.00;96463.53;1056967;28;20016;-52
2021/06/10 00:29:43;;;;;;;65.28;44.47;;;;;;;13.11;100.00;96466.38;1056783;28;20039;-52
2021/06/10 00:30:16;;;;;;;113.68;60.22;;;;;;;13.10;100.00;96465.53;1056922;28;20417;-53
2021/06/10 00:30:46;;;;;;;61.47;44.72;;;;;;;13.09;100.00;96466.47;1056934;28;20039;-53
2021/06/10 00:31:17;;;;;;;62.33;44.15;;;;;;;13.10;100.00;96459.41;1057322;28;20086;-52
2021/06/10 00:31:47;;;;;;;72.70;47.97;;;;;;;13.09;100.00;96468.28;1057143;28;20512;-51
2021/06/10 00:32:18;;;;;;;76.40;50.25;;;;;;;13.08;100.00;96463.94;1057172;28;20049;-50
2021/06/10 00:32:49;;;;;;;90.65;54.47;;;;;;;13.09;100.00;96468.28;1056958;28;20027;-51
2021/06/10 00:33:20;;;;;;;74.72;49.58;;;;;;;13.09;100.00;96463.84;1057192;28;20023;-51
2021/06/10 00:33:51;;;;;;;60.88;45.22;;;;;;;13.08;100.00;96467.41;1056367;28;20107;-50
2021/06/10 00:34:21;;;;;;;79.78;50.55;;;;;;;13.06;100.00;96460.59;1057184;28;20018;-50
2021/06/10 00:34:52;;;;;;;65.80;47.75;;;;;;;13.05;100.00;96462.38;1054150;28;20027;-52
2021/06/10 00:35:23;;;;;;;54.70;41.78;;;;;;;13.04;100.00;96463.31;1052668;28;20023;-50
2021/06/10 00:35:53;;;;;;;67.47;44.75;;;;;;;13.03;100.00;96459.84;1052818;28;20062;-51
2021/06/10 00:36:24;;;;;;;48.08;38.55;;;;;;;13.01;100.00;96464.41;1052867;28;20020;-52
2021/06/10 00:36:56;;;;;;;64.47;46.60;;;;;;;13.03;100.00;96461.66;1052836;28;20027;-52
2021/06/10 00:37:27;;;;;;;64.93;47.75;;;;;;;13.03;100.00;96459.03;1052869;28;20044;-51
2021/06/10 00:37:59;;;;;;;52.05;41.50;;;;;;;13.03;100.00;96459.84;1052871;28;20016;-52
2021/06/10 00:38:29;;;;;;;89.47;53.08;;;;;;;13.02;100.00;96465.22;1052959;28;20103;-51
2021/06/10 00:39:00;;;;;;;85.55;52.28;;;;;;;13.00;100.00;96462.69;1052732;28;20439;-53
2021/06/10 00:39:31;;;;;;;71.45;49.15;;;;;;;12.98;100.00;96459.34;1052926;28;20099;-52
2021/06/10 00:40:03;;;;;;;58.72;44.35;;;;;;;12.99;100.00;96465.47;1052872;28;20024;-53
2021/06/10 00:40:33;;;;;;;62.72;46.60;;;;;;;13.00;100.00;96467.97;1052833;28;20056;-53
2021/06/10 00:41:04;;;;;;;50.67;40.15;;;;;;;13.00;100.00;96465.34;1052726;28;20028;-54
2021/06/10 00:41:35;;;;;;;76.70;49.95;;;;;;;12.97;100.00;96468.19;1048558;28;20044;-52
2021/06/10 00:42:06;;;;;;;49.88;40.00;;;;;;;12.99;100.00;96462.84;1048717;28;20099;-52
2021/06/10 00:42:37;;;;;;;58.85;44.45;;;;;;;12.85;100.00;96445.41;1048709;28;20025;-52
2021/06/10 00:43:07;;;;;;;73.78;49.47;;;;;;;12.98;100.00;96459.34;1048482;28;20450;-52
2021/06/10 00:43:38;;;;;;;61.65;45.53;;;;;;;12.98;100.00;96461.13;1048030;28;20103;-50
2021/06/10 00:44:09;;;;;;;62.53;45.45;;;;;;;12.97;100.00;96467.34;1048580;28;20027;-52
2021/06/10 00:44:39;;;;;;;51.08;41.30;;;;;;;12.97;100.00;96464.72;1048762;28;20016;-52
2021/06/10 00:45:13;;;;;;;62.60;46.20;;;;;;;12.96;100.00;96463.88;1048389;28;20024;-51
2021/06/10 00:45:44;;;;;;;70.45;46.13;;;;;;;12.96;100.00;96463.03;1048695;28;20426;-52
2021/06/10 00:46:15;;;;;;;86.47;52.78;;;;;;;12.94;100.00;96459.69;1048698;28;20025;-53
2021/06/10 00:46:45;;;;;;;63.22;44.63;;;;;;;12.92;100.00;96457.16;1048732;28;20013;-52
2021/06/10 00:47:16;;;;;;;52.50;42.83;;;;;;;12.99;100.00;96463.66;1049880;28;20111;-51
2021/06/10 00:47:48;;;;;;;49.67;41.17;;;;;;;13.00;100.00;96461.88;1057041;28;20457;-53
2021/06/10 00:48:18;;;;;;;57.08;43.42;;;;;;;12.96;100.00;96455.97;1057104;28;20023;-53
2021/06/10 00:48:49;;;;;;;101.07;58.60;;;;;;;12.94;100.00;96468.41;1057014;28;20007;-52
2021/06/10 00:49:19;;;;;;;53.53;42.83;;;;;;;12.96;100.00;96465.69;1056856;28;20016;-53
2021/06/10 00:49:50;;;;;;;51.00;42.13;;;;;;;12.97;100.00;96468.19;1057280;28;20020;-52
2021/06/10 00:50:24;;;;;;;50.00;42.10;;;;;;;12.98;100.00;96467.22;1057892;28;20012;-54
2021/06/10 00:50:54;;;;;;;51.95;42.40;;;;;;;12.97;100.00;96469.97;1057092;28;20012;-51
2021/06/10 00:51:25;;;;;;;49.13;41.80;;;;;;;12.95;100.00;96467.47;1056883;28;20027;-53
2021/06/10 00:51:56;;;;;;;48.25;39.55;;;;;;;12.94;100.00;96463.16;1057098;28;20072;-51
2021/06/10 00:52:27;;;;;;;58.53;45.63;;;;;;;12.94;100.00;96462.31;1057083;28;20020;-53
2021/06/10 00:52:57;;;;;;;51.72;39.67;;;;;;;12.95;100.00;96466.63;1057025;28;20482;-52
2021/06/10 00:53:28;;;;;;;64.13;43.83;;;;;;;12.94;100.00;96471.03;1056572;28;20015;-51
2021/06/10 00:54:00;;;;;;;63.13;46.42;;;;;;;12.93;100.00;96471.16;1056742;28;20051;-52
2021/06/10 00:54:30;;;;;;;54.03;41.05;;;;;;;12.92;100.00;96466.84;1057177;28;20065;-49
2021/06/10 00:55:02;;;;;;;60.60;44.35;;;;;;;12.91;100.00;96468.63;1057125;28;20397;-52
2021/06/10 00:55:33;;;;;;;74.40;50.33;;;;;;;12.91;100.00;96471.25;1056884;28;20046;-52
2021/06/10 00:56:05;;;;;;;54.08;42.92;;;;;;;12.89;100.00;96469.69;1053875;28;20369;-50
2021/06/10 00:56:36;;;;;;;61.38;45.08;;;;;;;12.88;100.00;96466.22;1052915;28;20400;-50
2021/06/10 00:57:07;;;;;;;55.83;43.20;;;;;;;12.85;100.00;96466.44;1052912;28;20111;-50
2021/06/10 00:57:38;;;;;;;53.00;41.33;;;;;;;12.86;100.00;96469.91;1052667;28;20398;-50
2021/06/10 00:58:08;;;;;;;79.65;51.72;;;;;;;12.85;100.00;96469.06;1052877;28;20012;-51
2021/06/10 00:58:39;;;;;;;65.63;47.83;;;;;;;12.84;100.00;96464.78;1052895;28;20474;-50
2021/06/10 00:59:09;;;;;;;56.17;41.92;;;;;;;12.86;100.00;96469.91;1052956;28;20469;-51
2021/06/10 00:59:40;;;;;;;54.10;40.97;;;;;;;12.84;100.00;96470.03;1052613;28;20024;-51
2021/06/10 01:00:12;;;;;;;52.50;42.47;;;;;;;12.84;100.00;96470.88;1052868;28;20020;-50
2021/06/10 01:00:42;;;;;;;53.88;42.90;;;;;;;12.83;100.00;96463.06;1052857;28;20039;-51
2021/06/10 01:01:13;;;;;;;58.33;40.20;;;;;;;12.84;100.00;96472.66;1052843;28;20016;-50
2021/06/10 01:01:43;;;;;;;51.78;40.65;;;;;;;12.83;100.00;96465.72;1052611;28;20461;-54
2021/06/10 01:02:14;;;;;;;52.42;40.92;;;;;;;12.83;100.00;96465.72;1052783;28;20484;-49
2021/06/10 01:02:44;;;;;;;52.83;40.20;;;;;;;12.82;100.00;96464.03;1052791;28;20012;-52
2021/06/10 01:03:15;;;;;;;56.47;41.67;;;;;;;12.82;100.00;96467.50;1052890;28;20018;-52
2021/06/10 01:03:46;;;;;;;47.97;39.17;;;;;;;12.80;100.00;96452.75;1056085;28;20018;-54
2021/06/10 01:04:16;;;;;;;60.17;45.70;;;;;;;12.81;100.00;96467.59;1057067;28;20023;-51
2021/06/10 01:04:47;;;;;;;83.45;51.55;;;;;;;12.81;100.00;96459.72;1057101;28;20019;-52
2021/06/10 01:05:18;;;;;;;62.35;44.47;;;;;;;12.80;100.00;96464.16;1056959;28;20413;-54
2021/06/10 01:05:50;;;;;;;62.15;43.67;;;;;;;12.79;100.00;96462.44;1056675;28;20055;-52
2021/06/10 01:06:31;;;;;;;71.50;47.17;;;;;;;12.79;100.00;96466.88;1057067;28;20377;-51
2021/06/10 01:07:07;;;;;;;72.88;49.38;;;;;;;12.78;100.00;96460.78;1055175;28;20019;-51
2021/06/10 01:07:50;;;;;;;56.40;41.53;;;;;;;12.78;100.00;96465.19;1052844;28;20027;-54
2021/06/10 01:08:24;;;;;;;68.72;45.00;;;;;;;12.76;100.00;96462.69;1052741;28;20480;-53
2021/06/10 01:08:59;;;;;;;74.43;49.53;;;;;;;12.74;100.00;96467.19;1052825;28;20077;-52
2021/06/10 01:09:41;;;;;;;53.45;39.65;;;;;;;12.75;100.00;96466.25;1052765;28;20020;-53
2021/06/10 01:10:20;;;;;;;64.50;44.78;;;;;;;12.74;100.00;96461.94;1052534;28;20020;-51
2021/06/10 01:11:12;;;;;;;79.85;49.50;;;;;;;12.73;100.00;96469.94;1052787;28;20008;-51
2021/06/10 01:11:46;;;;;;;57.63;43.15;;;;;;;12.74;100.00;96463.72;1052907;28;20035;-52
2021/06/10 01:12:28;;;;;;;50.78;40.88;;;;;;;12.77;100.00;96466.16;1052450;28;20442;-51
2021/06/10 01:13:09;;;;;;;56.10;42.50;;;;;;;12.75;100.00;96463.63;1052831;28;20020;-52
2021/06/10 01:14:00;;;;;;;74.57;48.38;;;;;;;12.74;100.00;96464.56;1053633;28;20471;-51
2021/06/10 01:14:51;;;;;;;56.47;43.45;;;;;;;12.75;100.00;96468.88;1056844;28;20052;-50
2021/06/10 01:15:23;;;;;;;71.28;49.70;;;;;;;12.74;100.00;96467.19;1057048;28;20023;-50
2021/06/10 01:15:57;;;;;;;62.38;46.63;;;;;;;12.75;100.00;96468.88;1057002;27;20368;-51
2021/06/10 01:16:29;;;;;;;55.17;43.75;;;;;;;12.75;100.00;96468.06;1056700;28;20054;-52
2021/06/10 01:17:01;;;;;;;72.97;49.03;;;;;;;12.74;100.00;96464.56;1057076;28;20019;-52
2021/06/10 01:17:32;;;;;;;71.80;48.97;;;;;;;12.74;100.00;96466.34;1057051;28;20022;-49
2021/06/10 01:18:03;;;;;;;74.63;49.78;;;;;;;12.71;100.00;96472.69;1056639;28;20475;-52
2021/06/10 01:18:35;;;;;;;81.88;51.58;;;;;;;12.71;100.00;96469.22;1056511;28;20016;-51
2021/06/10 01:19:18;;;;;;;102.15;60.00;;;;;;;12.70;100.00;96467.53;1056693;28;20028;-54
2021/06/10 01:19:58;;;;;;;71.57;46.47;;;;;;;12.69;100.00;96461.44;1056901;28;20061;-53
2021/06/10 01:20:29;;;;;;;;;;;;;;;12.71;100.00;96464.78;1057257;28;20023;-50
2021/06/10 01:20:59;;;;;;;111.38;56.72;;;;;;;12.69;100.00;96468.47;1057044;28;19926;-49
2021/06/10 01:21:30;;;;;;;135.45;66.53;;;;;;;12.67;100.00;96465.09;1056714;28;20495;-51
2021/06/10 01:22:01;;;;;;;132.32;63.35;;;;;;;12.66;100.00;96466.06;1056675;28;20077;-52
2021/06/10 01:22:43;;;;;;;73.43;49.05;;;;;;;12.62;100.00;96463.63;1056730;28;20023;-53
2021/06/10 01:23:30;;;;;;;83.55;51.20;;;;;;;12.62;100.00;96460.19;1057074;28;20090;-51
2021/06/10 01:24:12;;;;;;;88.53;53.33;;;;;;;12.62;100.00;96457.56;1056763;28;20023;-51
2021/06/10 01:24:47;;;;;;;59.50;43.25;;;;;;;12.59;100.00;96465.66;1056820;28;20039;-52
2021/06/10 01:25:38;;;;;;;63.70;44.67;;;;;;;12.58;100.00;96463.97;1056939;28;20096;-51
2021/06/10 01:26:23;;;;;;;68.40;45.42;;;;;;;12.57;100.00;96457.84;1056930;28;20400;-53
2021/06/10 01:27:03;;;;;;;61.15;44.22;;;;;;;12.57;100.00;96462.28;1056762;28;20022;-52
2021/06/10 01:27:36;;;;;;;58.75;43.25;;;;;;;12.55;100.00;96457.13;1056991;28;20039;-52
2021/06/10 01:28:15;;;;;;;57.08;43.05;;;;;;;12.54;100.00;96462.53;1056842;28;20016;-53
2021/06/10 01:28:46;;;;;;;58.53;43.35;;;;;;;12.53;100.00;96455.56;1056792;28;20385;-52
2021/06/10 01:29:17;;;;;;;53.33;41.58;;;;;;;12.53;100.00;96463.44;1057036;28;20103;-53
2021/06/10 01:29:49;;;;;;;77.82;51.15;;;;;;;12.52;100.00;96464.38;1056999;28;20019;-51
2021/06/10 01:30:29;;;;;;;69.60;48.53;;;;;;;12.51;100.00;96463.56;1056868;28;20094;-51
2021/06/10 01:31:01;;;;;;;72.70;48.70;;;;;;;12.53;100.00;96460.81;1056847;28;20094;-52
2021/06/10 01:31:32;;;;;;;76.60;51.20;;;;;;;12.55;100.00;96459.75;1056946;28;20016;-51
2021/06/10 01:32:03;;;;;;;65.07;46.63;;;;;;;12.56;100.00;96464.09;1056935;28;20085;-53
2021/06/10 01:32:35;;;;;;;55.30;40.92;;;;;;;12.55;100.00;96453.66;1056747;28;20098;-52
2021/06/10 01:33:16;;;;;;;64.35;46.85;;;;;;;12.55;100.00;96456.28;1056829;28;20422;-52
2021/06/10 01:33:50;;;;;;;70.90;49.50;;;;;;;12.52;100.00;96460.00;1056297;28;20008;-52
2021/06/10 01:34:21;;;;;;;78.45;50.10;;;;;;;12.52;100.00;96457.38;1056889;28;20038;-53
2021/06/10 01:34:52;;;;;;;71.90;48.85;;;;;;;12.52;100.00;96453.88;1054271;28;20098;-53
2021/06/10 01:35:24;;;;;;;69.05;47.92;;;;;;;12.50;100.00;96454.00;1052404;28;20103;-53
2021/06/10 01:36:06;;;;;;;83.00;52.97;;;;;;;12.52;100.00;96460.00;1052644;28;20063;-52
2021/06/10 01:36:39;;;;;;;92.43;55.20;;;;;;;12.52;100.00;96454.72;1052736;28;20118;-52
2021/06/10 01:37:09;;;;;;;63.60;45.55;;;;;;;12.51;100.00;96452.22;1052496;28;20028;-51
2021/06/10 01:37:41;;;;;;;85.32;53.80;;;;;;;12.39;100.00;96431.09;1052571;28;20137;-51
2021/06/10 01:38:12;;;;;;;86.57;53.75;;;;;;;12.51;100.00;96455.66;1052629;28;20047;-52
2021/06/10 01:38:44;;;;;;;58.25;44.75;;;;;;;12.51;100.00;96454.84;1052781;28;20022;-52
2021/06/10 01:39:19;;;;;;;64.18;47.10;;;;;;;12.49;100.00;96449.69;1052487;28;20016;-53
2021/06/10 01:39:50;;;;;;;76.03;50.05;;;;;;;12.48;100.00;96450.66;1052655;28;20016;-51
2021/06/10 01:40:21;;;;;;;64.18;46.40;;;;;;;12.47;100.00;96451.56;1052522;28;20032;-51
2021/06/10 01:40:53;;;;;;;51.65;39.80;;;;;;;12.45;100.00;96453.47;1052755;28;20028;-52
2021/06/10 01:41:24;;;;;;;57.42;44.63;;;;;;;12.47;100.00;96450.75;1049688;28;20546;-52
2021/06/10 01:41:55;;;;;;;74.15;49.72;;;;;;;12.46;100.00;96449.88;1048611;28;20040;-51
2021/06/10 01:42:25;;;;;;;61.63;45.60;;;;;;;12.45;100.00;96443.78;1048327;28;20047;-51
2021/06/10 01:42:56;;;;;;;61.22;45.53;;;;;;;12.46;100.00;96447.25;1048531;28;20020;-51
2021/06/10 01:43:29;;;;;;;63.17;45.53;;;;;;;12.40;100.00;96443.28;1048062;28;20016;-50
2021/06/10 01:44:00;;;;;;;66.40;47.92;;;;;;;12.45;100.00;96442.97;1048175;28;20017;-52
2021/06/10 01:44:30;;;;;;;68.57;49.85;;;;;;;12.44;100.00;96455.28;1048437;28;20087;-51
2021/06/10 01:45:01;;;;;;;65.05;48.20;;;;;;;12.45;100.00;96443.78;1048513;28;20111;-51
2021/06/10 01:45:33;;;;;;;54.55;43.80;;;;;;;12.45;100.00;96441.16;1048196;28;20051;-51
2021/06/10 01:46:04;;;;;;;50.08;40.40;;;;;;;12.45;100.00;96445.59;1048498;28;20502;-51
2021/06/10 01:46:34;;;;;;;78.78;51.78;;;;;;;12.45;100.00;96445.59;1048516;28;20096;-50
2021/06/10 01:47:05;;;;;;;73.55;49.85;;;;;;;12.43;100.00;96448.31;1048522;28;20470;-51
2021/06/10 01:47:38;;;;;;;52.20;42.13;;;;;;;12.43;100.00;96450.13;1055141;28;20011;-53
2021/06/10 01:48:09;;;;;;;82.40;51.75;;;;;;;12.40;100.00;96452.94;1057348;28;20451;-54
2021/06/10 01:48:42;;;;;;;64.05;45.10;;;;;;;12.42;100.00;96449.25;1056767;28;20041;-52
2021/06/10 01:49:16;;;;;;;60.97;44.63;;;;;;;12.41;100.00;96446.75;1056901;28;20016;-51
2021/06/10 01:49:47;;;;;;;79.88;52.72;;;;;;;12.41;100.00;96441.50;1056631;28;20044;-51
2021/06/10 01:50:17;;;;;;;93.18;55.90;;;;;;;12.42;100.00;96443.16;1056844;28;20039;-50
2021/06/10 01:50:55;;;;;;;85.03;55.83;;;;;;;12.43;100.00;96447.50;1056629;28;20019;-52
2021/06/10 01:51:28;;;;;;;89.40;56.22;;;;;;;12.43;100.00;96444.88;1056668;28;20007;-53
2021/06/10 01:51:59;;;;;;;73.28;50.90;;;;;;;12.43;100.00;96444.88;1056343;28;20040;-52
2021/06/10 01:52:29;;;;;;;70.00;49.95;;;;;;;12.43;100.00;96442.25;1056554;28;20165;-49
2021/06/10 01:53:00;;;;;;;80.18;52.55;;;;;;;12.43;100.00;96439.59;1056960;28;20096;-54
2021/06/10 01:53:30;;;;;;;61.05;46.42;;;;;;;12.43;100.00;96442.25;1056385;28;20068;-50
2021/06/10 01:54:03;;;;;;;61.45;46.63;;;;;;;12.43;100.00;96442.25;1056423;28;20023;-52
2021/06/10 01:54:34;;;;;;;54.90;43.08;;;;;;;12.43;100.00;96447.50;1056832;28;20022;-51
2021/06/10 01:55:07;;;;;;;67.13;47.50;;;;;;;12.40;100.00;96445.06;1056915;28;20396;-51
2021/06/10 01:55:37;;;;;;;67.40;48.72;;;;;;;12.40;100.00;96440.63;1056787;28;20489;-52
2021/06/10 01:56:08;;;;;;;68.70;48.70;;;;;;;12.40;100.00;96447.69;1052987;28;20020;-52
2021/06/10 01:56:39;;;;;;;57.40;43.20;;;;;;;12.39;100.00;96449.50;1052623;28;20414;-51
2021/06/10 01:57:09;;;;;;;86.60;54.25;;;;;;;12.36;100.00;96443.59;1052709;28;20015;-51
2021/06/10 01:57:40;;;;;;;102.85;59.83;;;;;;;12.37;100.00;96445.28;1052652;28;20103;-53
2021/06/10 01:58:10;;;;;;;101.90;58.17;;;;;;;12.35;100.00;96442.78;1052429;28;20016;-51
2021/06/10 01:58:42;;;;;;;82.40;51.03;;;;;;;12.36;100.00;96441.81;1052650;28;20016;-51
2021/06/10 01:59:13;;;;;;;81.97;52.05;;;;;;;12.37;100.00;96447.91;1052724;28;20466;-50
2021/06/10 01:59:43;;;;;;;71.03;48.22;;;;;;;12.36;100.00;96444.44;1052670;28;20020;-51
2021/06/10 02:00:15;;;;;;;158.35;71.15;;;;;;;12.35;100.00;96439.28;1052393;28;20481;-55
2021/06/10 02:00:47;;;;;;;97.00;52.35;;;;;;;12.35;100.00;96441.91;1052622;28;20360;-50
2021/06/10 02:01:18;;;;;;;105.60;58.85;;;;;;;12.36;100.00;96443.59;1052563;28;20502;-53
2021/06/10 02:01:49;;;;;;;80.15;51.00;;;;;;;12.34;100.00;96443.69;1052627;28;20091;-54
2021/06/10 02:02:19;;;;;;;80.47;50.00;;;;;;;12.33;100.00;96436.78;1052248;28;20016;-52
2021/06/10 02:02:51;;;;;;;101.93;55.65;;;;;;;12.33;100.00;96443.81;1052631;28;20507;-54
2021/06/10 02:03:21;;;;;;;73.90;46.72;;;;;;;12.32;100.00;96442.97;1053239;28;20016;-51
2021/06/10 02:03:52;;;;;;;104.30;57.65;;;;;;;12.32;100.00;96440.34;1056237;28;20026;-53
2021/06/10 02:04:23;;;;;;;76.32;47.65;;;;;;;12.32;100.00;96447.41;1056464;28;20456;-51
2021/06/10 02:04:54;;;;;;;59.20;44.20;;;;;;;12.31;100.00;96437.81;1056752;28;20103;-50
2021/06/10 02:05:24;;;;;;;70.28;46.88;;;;;;;12.31;100.00;96443.91;1056686;28;20031;-52
2021/06/10 02:05:55;;;;;;;65.13;46.17;;;;;;;12.31;100.00;96449.16;1056818;28;20019;-52
2021/06/10 02:06:26;;;;;;;61.20;45.35;;;;;;;12.31;100.00;96441.28;1056411;28;20073;-52
2021/06/10 02:06:56;;;;;;;50.22;41.10;;;;;;;12.32;100.00;96440.34;1055512;28;20016;-52
2021/06/10 02:07:27;;;;;;;52.78;41.70;;;;;;;12.32;100.00;96445.59;1052684;28;20028;-53
2021/06/10 02:07:57;;;;;;;60.38;43.80;;;;;;;12.30;100.00;96444.88;1052611;28;20439;-53
2021/06/10 02:08:28;;;;;;;58.92;42.08;;;;;;;12.30;100.00;96444.03;1052304;28;20140;-52
2021/06/10 02:08:58;;;;;;;50.17;40.00;;;;;;;12.31;100.00;96440.44;1052566;28;20019;-53
2021/06/10 02:09:29;;;;;;;52.88;41.30;;;;;;;12.31;100.00;96446.53;1052532;28;20122;-52
2021/06/10 02:09:59;;;;;;;52.55;41.92;;;;;;;12.33;100.00;96446.44;1052664;28;20012;-53
2021/06/10 02:10:30;;;;;;;50.97;41.30;;;;;;;12.32;100.00;96445.59;1052241;28;20027;-52
2021/06/10 02:11:00;;;;;;;52.72;41.03;;;;;;;12.32;100.00;96445.59;1052657;28;20048;-51
2021/06/10 02:11:33;;;;;;;62.83;45.80;;;;;;;12.30;100.00;96442.25;1052561;28;20023;-51
2021/06/10 02:12:04;;;;;;;58.80;44.42;;;;;;;12.35;100.00;96453.28;1052681;28;20453;-52
2021/06/10 02:12:35;;;;;;;54.47;40.38;;;;;;;12.33;100.00;96444.66;1052204;28;20471;-53
2021/06/10 02:13:06;;;;;;;58.63;43.45;;;;;;;12.35;100.00;96441.91;1052671;28;20020;-51
2021/06/10 02:13:36;;;;;;;54.45;40.65;;;;;;;12.34;100.00;96448.13;1053074;28;20051;-56
2021/06/10 02:14:07;;;;;;;59.28;43.70;;;;;;;12.34;100.00;96448.97;1056777;28;20094;-53
2021/06/10 02:14:41;;;;;;;64.80;46.97;;;;;;;12.36;100.00;96451.50;1056450;28;20011;-52
2021/06/10 02:15:13;;;;;;;84.60;50.97;;;;;;;12.35;100.00;96449.78;1056809;28;20072;-50
2021/06/10 02:15:44;;;;;;;55.53;41.30;;;;;;;12.34;100.00;96448.97;1056732;28;20104;-49
2021/06/10 02:16:14;;;;;;;81.70;50.85;;;;;;;12.35;100.00;96449.78;1056818;28;20019;-51
2021/06/10 02:16:46;;;;;;;74.80;49.90;;;;;;;12.35;100.00;96447.16;1056509;28;20027;-52
2021/06/10 02:17:17;;;;;;;73.63;50.17;;;;;;;12.35;100.00;96448.03;1056762;28;20034;-52
2021/06/10 02:17:48;;;;;;;68.57;47.85;;;;;;;12.34;100.00;96448.97;1056792;28;20397;-53
2021/06/10 02:18:19;;;;;;;92.50;53.10;;;;;;;12.33;100.00;96449.06;1056773;28;20043;-54
2021/06/10 02:18:49;;;;;;;78.30;49.70;;;;;;;12.32;100.00;96447.41;1056444;28;20087;-52
2021/06/10 02:19:20;;;;;;;198.02;79.88;;;;;;;12.31;100.00;96448.31;1056809;28;20012;-52
2021/06/10 02:19:50;;;;;;;125.40;59.47;;;;;;;12.32;100.00;96450.03;1056815;28;20037;-52
2021/06/10 02:20:21;;;;;;;87.28;53.80;;;;;;;12.32;100.00;96444.78;1056774;28;20469;-52
2021/06/10 02:20:51;;;;;;;65.53;46.42;;;;;;;12.31;100.00;96443.91;1056492;28;20095;-52
2021/06/10 02:21:22;;;;;;;69.07;48.72;;;;;;;12.31;100.00;96448.31;1056751;28;20065;-53
2021/06/10 02:21:52;;;;;;;69.80;48.33;;;;;;;12.29;100.00;96443.19;1056790;28;20049;-51
2021/06/10 02:22:23;;;;;;;70.32;49.45;;;;;;;12.29;100.00;96440.53;1056584;28;20404;-52
2021/06/10 02:22:53;;;;;;;67.35;48.50;;;;;;;12.29;100.00;96448.44;1056512;28;20027;-52
2021/06/10 02:23:24;;;;;;;69.90;46.33;;;;;;;12.30;100.00;96446.66;1056566;28;20086;-52
2021/06/10 02:23:55;;;;;;;69.88;49.17;;;;;;;12.29;100.00;96450.22;1056329;28;20389;-51
2021/06/10 02:24:25;;;;;;;85.63;52.65;;;;;;;12.31;100.00;96445.69;1056708;28;20019;-52
2021/06/10 02:24:56;;;;;;;71.78;50.58;;;;;;;12.32;100.00;96444.78;1056675;28;20028;-52
2021/06/10 02:25:27;;;;;;;70.53;49.17;;;;;;;12.30;100.00;96447.50;1056423;28;20100;-52
2021/06/10 02:25:57;;;;;;;71.32;48.30;;;;;;;12.31;100.00;96445.69;1056827;28;20028;-53